Time;durP1;ratioP1;P1;durP2;ratioP2;P2;SDS_P1;SDS_P2;PMS_P1;PMS_P2;Temp;Humidity;BMP_temperature;BMP_pressure;BME280_temperature;BME280_humidity;BME280_pressure;Samples;Min_cycle;Max_cycle;Signal;HPM_P1;HPM_P2
2021/08/22 00:00:14;;;;;;;6.13;3.20;;;;;;;;;;5032497;28;20738;-83
2021/08/22 00:02:40;;;;;;;3.25;2.67;;;;;;;;;;5032177;28;20042;-83
2021/08/22 00:05:05;;;;;;;4.45;2.70;;;;;;;;;;5036567;28;20026;-83
2021/08/22 00:07:31;;;;;;;4.85;2.60;;;;;;;;;;5037527;28;20017;-83
2021/08/22 00:09:57;;;;;;;3.45;2.65;;;;;;;;;;5036735;28;20029;-84
2021/08/22 00:12:22;;;;;;;3.83;2.40;;;;;;;;;;5035328;28;20025;-84
2021/08/22 00:14:47;;;;;;;8.18;3.10;;;;;;;;;;5032731;28;20052;-83
2021/08/22 00:17:13;;;;;;;5.07;3.70;;;;;;;;;;5034051;28;20067;-83
2021/08/22 00:19:38;;;;;;;6.05;4.00;;;;;;;;;;5036525;28;20032;-84
2021/08/22 00:22:03;;;;;;;5.38;3.85;;;;;;;;;;5037000;28;20040;-84
2021/08/22 00:24:29;;;;;;;3.90;3.58;;;;;;;;;;5033159;28;20052;-83
2021/08/22 00:26:54;;;;;;;9.70;5.00;;;;;;;;;;5032620;28;20025;-83
2021/08/22 00:29:19;;;;;;;8.38;4.68;;;;;;;;;;5034870;28;20061;-84
2021/08/22 00:31:45;;;;;;;6.40;3.60;;;;;;;;;;5038101;28;20634;-84
2021/08/22 00:34:10;;;;;;;5.70;4.35;;;;;;;;;;5036196;28;20539;-83
2021/08/22 00:36:35;;;;;;;6.63;3.85;;;;;;;;;;5034884;28;20416;-83
2021/08/22 00:39:01;;;;;;;7.65;3.95;;;;;;;;;;5032546;28;20075;-84
2021/08/22 00:41:27;;;;;;;6.20;4.75;;;;;;;;;;5031333;28;20030;-83
2021/08/22 00:43:53;;;;;;;6.72;3.78;;;;;;;;;;5035091;28;20439;-83
2021/08/22 00:46:18;;;;;;;4.20;3.80;;;;;;;;;;5034481;28;20021;-83
2021/08/22 00:48:44;;;;;;;4.60;3.80;;;;;;;;;;5034164;28;20028;-83
2021/08/22 00:51:11;;;;;;;4.22;3.60;;;;;;;;;;5035081;28;20052;-83
2021/08/22 00:53:37;;;;;;;3.40;3.08;;;;;;;;;;5034783;28;20021;-84
2021/08/22 00:56:04;;;;;;;3.35;2.90;;;;;;;;;;5032444;28;20022;-83
2021/08/22 00:58:29;;;;;;;4.50;3.47;;;;;;;;;;5033336;28;20044;-83
2021/08/22 01:00:55;;;;;;;4.18;2.60;;;;;;;;;;5032451;28;20021;-83
2021/08/22 01:03:32;;;;;;;3.90;2.60;;;;;;;;;;5031277;28;20022;-83
2021/08/22 01:06:15;;;;;;;3.83;2.28;;;;;;;;;;5034278;28;20408;-83
2021/08/22 01:08:42;;;;;;;3.88;2.50;;;;;;;;;;5035350;28;20540;-83
2021/08/22 01:11:12;;;;;;;3.70;2.00;;;;;;;;;;5033670;28;20095;-83
2021/08/22 01:13:39;;;;;;;2.33;2.10;;;;;;;;;;5035434;28;20091;-83
2021/08/22 01:16:06;;;;;;;3.85;2.10;;;;;;;;;;5035564;28;20083;-84
2021/08/22 01:18:32;;;;;;;3.25;2.00;;;;;;;;;;5035108;28;20029;-84
2021/08/22 01:20:57;;;;;;;3.13;1.95;;;;;;;;;;5031750;28;20370;-84
2021/08/22 01:23:23;;;;;;;2.40;1.90;;;;;;;;;;5031013;28;20025;-84
2021/08/22 01:25:48;;;;;;;3.50;2.20;;;;;;;;;;5030838;28;20029;-83
2021/08/22 01:28:13;;;;;;;2.50;2.00;;;;;;;;;;5031168;28;20022;-83
2021/08/22 01:30:44;;;;;;;3.95;2.22;;;;;;;;;;5029726;28;20032;-83
2021/08/22 01:33:10;;;;;;;8.23;2.03;;;;;;;;;;5034516;28;20038;-84
2021/08/22 01:35:36;;;;;;;3.25;2.00;;;;;;;;;;5035235;28;20268;-84
2021/08/22 01:38:01;;;;;;;2.25;1.90;;;;;;;;;;5035801;28;20512;-83
2021/08/22 01:40:30;;;;;;;2.00;1.80;;;;;;;;;;5034967;28;20021;-83
2021/08/22 01:42:56;;;;;;;2.20;1.83;;;;;;;;;;5033396;28;20112;-83
2021/08/22 01:45:21;;;;;;;2.63;2.17;;;;;;;;;;5031156;28;20108;-83
2021/08/22 01:47:50;;;;;;;3.42;1.90;;;;;;;;;;5030304;28;20809;-83
2021/08/22 01:50:16;;;;;;;5.63;1.98;;;;;;;;;;5030839;28;20090;-83
2021/08/22 01:52:42;;;;;;;1.90;1.77;;;;;;;;;;5029205;28;20051;-84
2021/08/22 01:55:08;;;;;;;2.50;1.60;;;;;;;;;;5030019;28;20026;-83
2021/08/22 01:57:35;;;;;;;3.40;1.77;;;;;;;;;;5033893;28;20025;-83
2021/08/22 02:00:00;;;;;;;1.88;1.77;;;;;;;;;;5033415;28;20065;-84
2021/08/22 02:02:25;;;;;;;2.47;1.80;;;;;;;;;;5034479;28;20025;-83
2021/08/22 02:04:53;;;;;;;2.33;1.97;;;;;;;;;;5031400;28;20763;-83
2021/08/22 02:07:23;;;;;;;3.08;2.13;;;;;;;;;;5030628;28;20287;-83
2021/08/22 02:09:48;;;;;;;2.20;1.88;;;;;;;;;;5029839;28;20032;-83
2021/08/22 02:12:15;;;;;;;3.47;2.00;;;;;;;;;;5030619;28;20029;-83
2021/08/22 02:14:42;;;;;;;2.88;2.20;;;;;;;;;;5031025;28;20044;-82
2021/08/22 02:17:08;;;;;;;4.28;1.92;;;;;;;;;;5032721;28;20536;-83
2021/08/22 02:19:33;;;;;;;4.15;1.80;;;;;;;;;;5033444;28;20034;-84
2021/08/22 02:21:58;;;;;;;4.60;2.08;;;;;;;;;;5038528;28;20022;-84
2021/08/22 02:24:24;;;;;;;3.58;2.20;;;;;;;;;;5036714;28;20167;-84
2021/08/22 02:26:49;;;;;;;3.85;2.33;;;;;;;;;;5036435;28;20021;-84
2021/08/22 02:29:14;;;;;;;3.03;1.90;;;;;;;;;;5035329;28;20583;-83
2021/08/22 02:31:40;;;;;;;1.98;1.70;;;;;;;;;;5035971;28;20030;-83
2021/08/22 02:34:05;;;;;;;2.53;1.70;;;;;;;;;;5033156;28;20519;-84
2021/08/22 02:36:30;;;;;;;3.10;1.63;;;;;;;;;;5034634;28;20263;-83
2021/08/22 02:38:56;;;;;;;2.25;1.67;;;;;;;;;;5034044;28;20048;-84
2021/08/22 02:41:21;;;;;;;3.72;1.83;;;;;;;;;;5033199;28;20026;-84
2021/08/22 02:43:47;;;;;;;5.60;2.10;;;;;;;;;;5038742;28;20052;-84
2021/08/22 02:46:12;;;;;;;2.37;1.73;;;;;;;;;;5039535;28;20025;-83
2021/08/22 02:48:37;;;;;;;2.70;1.80;;;;;;;;;;5038292;28;20025;-83
2021/08/22 02:51:02;;;;;;;5.50;2.30;;;;;;;;;;5036592;28;20252;-83
2021/08/22 02:53:28;;;;;;;2.78;1.70;;;;;;;;;;5035789;28;20024;-83
2021/08/22 02:55:54;;;;;;;4.57;1.40;;;;;;;;;;5034972;28;20054;-83
2021/08/22 02:58:19;;;;;;;2.63;1.70;;;;;;;;;;5033989;28;20028;-83
2021/08/22 03:00:45;;;;;;;5.22;1.85;;;;;;;;;;5033967;28;20436;-83
2021/08/22 03:03:10;;;;;;;2.85;1.50;;;;;;;;;;5033745;28;20025;-83
2021/08/22 03:05:35;;;;;;;1.85;1.75;;;;;;;;;;5031783;28;20168;-82
2021/08/22 03:08:00;;;;;;;3.23;1.80;;;;;;;;;;5037461;28;20033;-84
2021/08/22 03:10:26;;;;;;;3.57;1.70;;;;;;;;;;5037325;28;20060;-83
2021/08/22 03:12:51;;;;;;;1.70;1.60;;;;;;;;;;5037181;28;20049;-83
2021/08/22 03:15:16;;;;;;;2.77;1.50;;;;;;;;;;5035582;28;20057;-84
2021/08/22 03:17:41;;;;;;;3.40;1.67;;;;;;;;;;5035613;28;20025;-83
2021/08/22 03:20:07;;;;;;;6.53;1.90;;;;;;;;;;5034603;28;20470;-83
2021/08/22 03:22:32;;;;;;;1.85;1.70;;;;;;;;;;5032500;28;20027;-83
2021/08/22 03:24:58;;;;;;;4.35;1.95;;;;;;;;;;5034151;28;20017;-83
2021/08/22 03:27:23;;;;;;;2.60;1.70;;;;;;;;;;5032939;28;20414;-83
2021/08/22 03:29:49;;;;;;;2.40;2.00;;;;;;;;;;5036499;28;20060;-84
2021/08/22 03:32:14;;;;;;;4.70;2.25;;;;;;;;;;5037076;28;20295;-83
2021/08/22 03:34:39;;;;;;;3.17;1.92;;;;;;;;;;5036325;28;20025;-83
2021/08/22 03:37:04;;;;;;;6.17;2.73;;;;;;;;;;5035612;28;20041;-83
2021/08/22 03:39:30;;;;;;;2.35;1.75;;;;;;;;;;5035062;28;20043;-83
2021/08/22 03:41:55;;;;;;;3.00;2.10;;;;;;;;;;5035437;28;20068;-83
2021/08/22 03:44:20;;;;;;;5.47;2.10;;;;;;;;;;5036281;28;20112;-84
2021/08/22 03:46:45;;;;;;;2.03;1.83;;;;;;;;;;5032601;28;20021;-83
2021/08/22 03:49:11;;;;;;;5.57;2.37;;;;;;;;;;5032238;28;20043;-83
2021/08/22 03:51:36;;;;;;;3.97;2.00;;;;;;;;;;5033399;28;20656;-83
2021/08/22 03:54:01;;;;;;;2.07;1.87;;;;;;;;;;5035633;28;20039;-84
2021/08/22 03:56:26;;;;;;;3.78;2.58;;;;;;;;;;5037822;28;20264;-83
2021/08/22 03:58:51;;;;;;;3.33;2.17;;;;;;;;;;5037129;28;20103;-83
2021/08/22 04:01:17;;;;;;;2.80;2.53;;;;;;;;;;5035489;28;20032;-83
2021/08/22 04:03:42;;;;;;;4.40;3.07;;;;;;;;;;5033930;28;20544;-83
2021/08/22 04:06:07;;;;;;;3.27;2.90;;;;;;;;;;5033605;28;20036;-83
2021/08/22 04:08:34;;;;;;;3.08;2.38;;;;;;;;;;5036396;28;20549;-83
2021/08/22 04:10:59;;;;;;;2.70;2.35;;;;;;;;;;5033727;28;20024;-83
2021/08/22 04:13:25;;;;;;;3.55;2.10;;;;;;;;;;5034428;28;20026;-83
2021/08/22 04:15:50;;;;;;;3.13;2.60;;;;;;;;;;5032451;28;20073;-83
2021/08/22 04:18:16;;;;;;;2.88;2.42;;;;;;;;;;5035828;28;20394;-84
2021/08/22 04:20:41;;;;;;;3.30;2.70;;;;;;;;;;5035444;28;20487;-83
2021/08/22 04:23:07;;;;;;;4.07;2.50;;;;;;;;;;5034085;28;20021;-83
2021/08/22 04:25:32;;;;;;;2.95;2.58;;;;;;;;;;5031726;28;20025;-83
2021/08/22 04:27:58;;;;;;;2.97;2.38;;;;;;;;;;5030554;28;20388;-83
2021/08/22 04:30:23;;;;;;;5.90;2.28;;;;;;;;;;5033278;28;20450;-84
2021/08/22 04:32:48;;;;;;;2.95;2.13;;;;;;;;;;5035048;28;20538;-83
2021/08/22 04:35:13;;;;;;;4.47;2.87;;;;;;;;;;5033781;28;20029;-83
2021/08/22 04:37:38;;;;;;;5.60;2.53;;;;;;;;;;5034863;28;20033;-83
2021/08/22 04:40:08;;;;;;;4.47;2.70;;;;;;;;;;5034396;28;20026;-84
2021/08/22 04:42:33;;;;;;;6.00;2.55;;;;;;;;;;5035191;28;20673;-83
2021/08/22 04:44:59;;;;;;;3.42;2.72;;;;;;;;;;5032209;28;20056;-83
2021/08/22 04:47:24;;;;;;;3.45;3.15;;;;;;;;;;5032920;28;20444;-83
2021/08/22 04:49:49;;;;;;;6.63;2.23;;;;;;;;;;5032104;28;20040;-83
2021/08/22 04:52:15;;;;;;;4.68;2.45;;;;;;;;;;5031326;28;20374;-83
2021/08/22 04:54:40;;;;;;;3.92;2.53;;;;;;;;;;5031650;28;20021;-84
2021/08/22 04:57:06;;;;;;;3.28;2.20;;;;;;;;;;5034154;28;20040;-83
2021/08/22 04:59:31;;;;;;;3.78;2.28;;;;;;;;;;5037251;28;20382;-84
2021/08/22 05:01:56;;;;;;;5.07;2.97;;;;;;;;;;5033787;28;20017;-83
2021/08/22 05:04:21;;;;;;;3.10;2.37;;;;;;;;;;5032074;28;20025;-83
2021/08/22 05:06:46;;;;;;;3.67;2.40;;;;;;;;;;5031375;28;20020;-83
2021/08/22 05:09:12;;;;;;;6.47;2.38;;;;;;;;;;5032078;28;20092;-83
2021/08/22 05:11:37;;;;;;;3.13;2.30;;;;;;;;;;5031140;28;20025;-83
2021/08/22 05:14:02;;;;;;;6.20;2.35;;;;;;;;;;5030878;28;20282;-83
2021/08/22 05:16:27;;;;;;;5.67;2.43;;;;;;;;;;5031517;28;20061;-83
2021/08/22 05:18:52;;;;;;;3.20;2.22;;;;;;;;;;5036685;28;20029;-84
2021/08/22 05:21:18;;;;;;;3.00;2.30;;;;;;;;;;5036179;28;20071;-84
2021/08/22 05:23:43;;;;;;;4.27;2.00;;;;;;;;;;5032483;28;20385;-84
2021/08/22 05:26:09;;;;;;;9.52;2.83;;;;;;;;;;5033018;28;20025;-84
2021/08/22 05:28:34;;;;;;;4.28;2.10;;;;;;;;;;5030527;28;20108;-84
2021/08/22 05:30:59;;;;;;;5.93;2.23;;;;;;;;;;5031463;28;20095;-83
2021/08/22 05:33:24;;;;;;;4.47;2.30;;;;;;;;;;5030606;28;20272;-83
2021/08/22 05:35:50;;;;;;;5.07;2.00;;;;;;;;;;5029160;28;20040;-83
2021/08/22 05:38:15;;;;;;;4.80;2.23;;;;;;;;;;5030067;28;20029;-82
2021/08/22 05:40:40;;;;;;;4.63;2.43;;;;;;;;;;5036076;28;20299;-84
2021/08/22 05:43:05;;;;;;;4.77;2.97;;;;;;;;;;5034581;28;20022;-84
2021/08/22 05:45:31;;;;;;;4.30;2.10;;;;;;;;;;5036158;28;20736;-84
2021/08/22 05:47:56;;;;;;;2.85;1.85;;;;;;;;;;5034787;28;20017;-83
2021/08/22 05:50:21;;;;;;;5.45;2.13;;;;;;;;;;5034379;28;20489;-84
2021/08/22 05:52:46;;;;;;;5.30;2.60;;;;;;;;;;5032214;28;20076;-84
2021/08/22 05:55:12;;;;;;;4.73;2.37;;;;;;;;;;5033746;28;20057;-84
2021/08/22 05:57:37;;;;;;;3.75;2.10;;;;;;;;;;5030769;28;20500;-83
2021/08/22 06:00:06;;;;;;;4.65;2.42;;;;;;;;;;5030274;28;20487;-83
2021/08/22 06:02:31;;;;;;;2.33;1.80;;;;;;;;;;5030352;28;20097;-84
2021/08/22 06:04:56;;;;;;;3.00;1.70;;;;;;;;;;5029526;28;20132;-83
2021/08/22 06:07:23;;;;;;;1.80;1.60;;;;;;;;;;5030259;28;20252;-83
2021/08/22 06:09:49;;;;;;;7.53;2.35;;;;;;;;;;5030475;28;20473;-83
2021/08/22 06:12:15;;;;;;;6.18;2.45;;;;;;;;;;5033226;28;20029;-84
2021/08/22 06:14:40;;;;;;;2.15;1.90;;;;;;;;;;5033198;28;20633;-83
2021/08/22 06:17:05;;;;;;;4.13;2.00;;;;;;;;;;5033747;28;20036;-83
2021/08/22 06:19:30;;;;;;;4.80;2.00;;;;;;;;;;5031628;28;20582;-83
2021/08/22 06:21:55;;;;;;;4.07;2.05;;;;;;;;;;5033088;28;20017;-83
2021/08/22 06:24:21;;;;;;;5.07;1.90;;;;;;;;;;5033161;28;20109;-83
2021/08/22 06:26:46;;;;;;;2.87;2.00;;;;;;;;;;5032801;28;20014;-83
2021/08/22 06:29:11;;;;;;;4.13;1.70;;;;;;;;;;5032211;28;20256;-83
2021/08/22 06:31:36;;;;;;;4.53;1.70;;;;;;;;;;5032203;28;20609;-83
2021/08/22 06:34:02;;;;;;;3.30;1.80;;;;;;;;;;5032628;28;20037;-83
2021/08/22 06:36:27;;;;;;;3.33;2.20;;;;;;;;;;5032209;28;20275;-83
2021/08/22 06:38:52;;;;;;;2.80;1.90;;;;;;;;;;5031638;28;20025;-83
2021/08/22 06:41:17;;;;;;;4.23;1.90;;;;;;;;;;5031954;28;20267;-84
2021/08/22 06:43:42;;;;;;;3.27;2.00;;;;;;;;;;5030398;28;20112;-83
2021/08/22 06:46:07;;;;;;;6.78;2.03;;;;;;;;;;5032006;28;20018;-83
2021/08/22 06:48:33;;;;;;;8.37;2.40;;;;;;;;;;5033149;28;20017;-84
2021/08/22 06:50:58;;;;;;;6.20;2.00;;;;;;;;;;5032277;28;20022;-84
2021/08/22 06:53:23;;;;;;;4.40;2.20;;;;;;;;;;5033348;28;20018;-84
2021/08/22 06:55:48;;;;;;;4.30;2.03;;;;;;;;;;5033588;28;20783;-84
2021/08/22 06:58:13;;;;;;;2.43;1.73;;;;;;;;;;5030445;28;20018;-84
2021/08/22 07:00:39;;;;;;;2.95;1.80;;;;;;;;;;5031237;28;20370;-83
2021/08/22 07:03:04;;;;;;;3.67;1.80;;;;;;;;;;5033084;28;20021;-84
2021/08/22 07:05:29;;;;;;;2.60;1.60;;;;;;;;;;5034280;28;20021;-83
2021/08/22 07:07:54;;;;;;;3.80;2.60;;;;;;;;;;5038747;28;20055;-84
2021/08/22 07:10:19;;;;;;;2.35;1.80;;;;;;;;;;5036053;28;20021;-84
2021/08/22 07:12:45;;;;;;;3.55;1.80;;;;;;;;;;5037065;28;20057;-84
2021/08/22 07:15:13;;;;;;;2.53;1.63;;;;;;;;;;5036295;28;20048;-84
2021/08/22 07:17:38;;;;;;;8.45;1.80;;;;;;;;;;5033181;28;20029;-84
2021/08/22 07:20:04;;;;;;;5.67;1.93;;;;;;;;;;5032349;28;20029;-84
2021/08/22 07:22:29;;;;;;;4.05;1.58;;;;;;;;;;5034159;28;20612;-83
2021/08/22 07:24:56;;;;;;;2.60;1.27;;;;;;;;;;5035453;28;20030;-84
2021/08/22 07:27:21;;;;;;;6.80;1.42;;;;;;;;;;5035344;28;20271;-84
2021/08/22 07:29:47;;;;;;;1.43;1.20;;;;;;;;;;5033987;28;20022;-84
2021/08/22 07:32:12;;;;;;;5.17;1.53;;;;;;;;;;5034398;28;20100;-83
2021/08/22 07:34:37;;;;;;;3.97;1.70;;;;;;;;;;5032055;28;20271;-84
2021/08/22 07:37:04;;;;;;;2.53;1.65;;;;;;;;;;5033806;28;20092;-82
2021/08/22 07:39:29;;;;;;;2.67;1.40;;;;;;;;;;5031667;28;20132;-84
2021/08/22 07:41:54;;;;;;;2.63;1.30;;;;;;;;;;5032787;28;20100;-83
2021/08/22 07:44:21;;;;;;;5.63;1.50;;;;;;;;;;5036037;28;20013;-84
2021/08/22 07:46:46;;;;;;;6.90;1.73;;;;;;;;;;5036372;28;20283;-83
2021/08/22 07:49:11;;;;;;;3.17;1.65;;;;;;;;;;5035801;28;20037;-85
2021/08/22 07:51:36;;;;;;;3.77;1.20;;;;;;;;;;5039708;28;20104;-84
2021/08/22 07:54:01;;;;;;;2.37;1.50;;;;;;;;;;5038882;28;20030;-84
2021/08/22 07:56:27;;;;;;;4.43;1.53;;;;;;;;;;5037480;28;20100;-84
2021/08/22 07:58:52;;;;;;;3.60;1.80;;;;;;;;;;5038198;28;20023;-84
2021/08/22 08:01:17;;;;;;;3.10;1.33;;;;;;;;;;5037699;28;20025;-84
2021/08/22 08:03:42;;;;;;;5.97;1.40;;;;;;;;;;5036232;28;20105;-84
2021/08/22 08:06:07;;;;;;;3.67;1.30;;;;;;;;;;5035459;28;20089;-84
2021/08/22 08:08:35;;;;;;;6.05;1.83;;;;;;;;;;5034002;28;20025;-83
2021/08/22 08:11:01;;;;;;;2.38;1.50;;;;;;;;;;5035101;28;20022;-83
2021/08/22 08:13:26;;;;;;;5.15;1.75;;;;;;;;;;5033700;28;20026;-84
2021/08/22 08:15:51;;;;;;;2.20;1.33;;;;;;;;;;5033614;28;20528;-84
2021/08/22 08:18:17;;;;;;;4.73;1.50;;;;;;;;;;5032255;28;20263;-84
2021/08/22 08:20:42;;;;;;;3.20;1.30;;;;;;;;;;5033092;28;20303;-84
2021/08/22 08:23:07;;;;;;;3.33;1.40;;;;;;;;;;5031852;28;20267;-83
2021/08/22 08:25:32;;;;;;;4.33;1.40;;;;;;;;;;5032044;28;20268;-84
2021/08/22 08:27:57;;;;;;;3.83;1.80;;;;;;;;;;5031435;28;20267;-84
2021/08/22 08:30:23;;;;;;;3.93;1.60;;;;;;;;;;5032605;28;20647;-83
2021/08/22 08:32:48;;;;;;;6.82;2.70;;;;;;;;;;5032282;28;20620;-83
2021/08/22 08:35:13;;;;;;;4.68;1.15;;;;;;;;;;5032008;28;20064;-83
2021/08/22 08:37:39;;;;;;;4.32;1.50;;;;;;;;;;5030127;28;20025;-83
2021/08/22 08:40:05;;;;;;;3.63;1.60;;;;;;;;;;5030818;28;20028;-84
2021/08/22 08:42:31;;;;;;;2.55;1.38;;;;;;;;;;5030443;28;20044;-84
2021/08/22 08:44:57;;;;;;;4.25;1.65;;;;;;;;;;5032171;28;20448;-84
2021/08/22 08:47:23;;;;;;;5.43;1.60;;;;;;;;;;5032195;28;20014;-83
2021/08/22 08:50:03;;;;;;;4.60;1.42;;;;;;;;;;5033714;28;20051;-84
2021/08/22 08:52:40;;;;;;;5.13;1.52;;;;;;;;;;5037745;28;20025;-83
2021/08/22 08:55:05;;;;;;;5.13;1.90;;;;;;;;;;5035675;28;20560;-83
2021/08/22 08:57:31;;;;;;;7.50;3.20;;;;;;;;;;5034125;28;20033;-81
2021/08/22 08:59:57;;;;;;;7.00;2.53;;;;;;;;;;5033855;28;20033;-81
2021/08/22 09:02:22;;;;;;;6.13;1.83;;;;;;;;;;5033672;28;20029;-81
2021/08/22 09:04:47;;;;;;;4.13;1.90;;;;;;;;;;5031271;28;20120;-82
2021/08/22 09:07:27;;;;;;;5.05;2.10;;;;;;;;;;5031798;28;20025;-80
2021/08/22 09:10:11;;;;;;;9.37;2.70;;;;;;;;;;5032715;28;20082;-80
2021/08/22 09:12:45;;;;;;;3.97;1.85;;;;;;;;;;5033239;28;20035;-80
2021/08/22 09:15:26;;;;;;;6.15;2.63;;;;;;;;;;5030972;28;20446;-81
2021/08/22 09:18:09;;;;;;;6.18;1.90;;;;;;;;;;5033216;28;20389;-80
2021/08/22 09:20:35;;;;;;;4.03;1.92;;;;;;;;;;5030462;28;20033;-80
2021/08/22 09:23:18;;;;;;;9.57;2.40;;;;;;;;;;5031982;28;20555;-80
2021/08/22 09:26:03;;;;;;;4.32;1.80;;;;;;;;;;5032029;28;20036;-80
2021/08/22 09:28:37;;;;;;;3.80;1.65;;;;;;;;;;5031857;28;20052;-81
2021/08/22 09:31:29;;;;;;;6.68;2.00;;;;;;;;;;5031861;28;20025;-81
2021/08/22 09:34:13;;;;;;;2.50;1.70;;;;;;;;;;5030281;28;20067;-80
2021/08/22 09:36:57;;;;;;;4.20;2.30;;;;;;;;;;5030862;28;20389;-82
2021/08/22 09:39:28;;;;;;;6.10;1.60;;;;;;;;;;5028748;28;20405;-82
2021/08/22 09:42:05;;;;;;;5.53;1.90;;;;;;;;;;5030042;28;20025;-81
2021/08/22 09:44:43;;;;;;;3.97;1.58;;;;;;;;;;5030199;28;20064;-81
2021/08/22 09:47:27;;;;;;;2.97;1.40;;;;;;;;;;5030562;28;20428;-80
2021/08/22 09:50:10;;;;;;;6.15;1.77;;;;;;;;;;5030187;28;20440;-81
2021/08/22 09:52:39;;;;;;;3.83;1.70;;;;;;;;;;5029073;28;20029;-81
2021/08/22 09:55:04;;;;;;;4.57;1.90;;;;;;;;;;5030184;28;20032;-81
2021/08/22 09:57:48;;;;;;;4.47;1.80;;;;;;;;;;5027276;28;20018;-80
2021/08/22 10:00:16;;;;;;;3.88;1.77;;;;;;;;;;5029996;28;20279;-81
2021/08/22 10:02:59;;;;;;;3.15;1.92;;;;;;;;;;5027277;28;20017;-80
2021/08/22 10:05:43;;;;;;;7.05;2.20;;;;;;;;;;5030524;28;20021;-82
2021/08/22 10:08:11;;;;;;;8.90;2.20;;;;;;;;;;5038426;28;20480;-81
2021/08/22 10:10:39;;;;;;;9.45;2.72;;;;;;;;;;5037435;28;20044;-80
2021/08/22 10:13:04;;;;;;;7.18;1.90;;;;;;;;;;5045609;28;20036;-81
2021/08/22 10:15:30;;;;;;;2.70;1.60;;;;;;;;;;5027037;28;20057;-81
2021/08/22 10:17:55;;;;;;;3.20;1.73;;;;;;;;;;5034165;28;20263;-81
2021/08/22 10:20:20;;;;;;;9.73;2.85;;;;;;;;;;5036968;28;20618;-83
2021/08/22 10:22:51;;;;;;;3.47;1.98;;;;;;;;;;5028809;28;20018;-84
2021/08/22 10:25:20;;;;;;;;;;;;;;;;;;5049387;28;20119;-81
2021/08/22 10:27:47;;;;;;;10.82;2.22;;;;;;;;;;5042346;28;19935;-82
2021/08/22 10:30:13;;;;;;;7.82;1.98;;;;;;;;;;5037589;28;20025;-82
2021/08/22 10:32:57;;;;;;;6.53;1.98;;;;;;;;;;5034970;28;20082;-81
2021/08/22 10:35:23;;;;;;;4.68;2.00;;;;;;;;;;5033285;28;20055;-83
2021/08/22 10:37:48;;;;;;;7.45;1.90;;;;;;;;;;5046514;28;20048;-83
2021/08/22 10:40:40;;;;;;;3.60;1.60;;;;;;;;;;5034580;28;20719;-84
2021/08/22 10:43:05;;;;;;;3.63;1.85;;;;;;;;;;5053396;28;20056;-83
2021/08/22 10:45:39;;;;;;;2.20;1.58;;;;;;;;;;5049993;28;20049;-83
2021/08/22 10:48:04;;;;;;;5.82;1.67;;;;;;;;;;5043804;28;20041;-83
2021/08/22 10:50:30;;;;;;;4.15;1.90;;;;;;;;;;5041960;28;20057;-83
2021/08/22 10:53:15;;;;;;;3.65;1.60;;;;;;;;;;5033570;28;20067;-83
2021/08/22 10:55:40;;;;;;;6.78;2.10;;;;;;;;;;5032935;28;20037;-83
2021/08/22 10:58:05;;;;;;;5.63;2.00;;;;;;;;;;5033341;28;20116;-83
2021/08/22 11:00:32;;;;;;;3.37;1.83;;;;;;;;;;5034939;28;20025;-83
2021/08/22 11:03:04;;;;;;;4.43;1.70;;;;;;;;;;5049800;28;20021;-83
2021/08/22 11:05:33;;;;;;;3.72;1.42;;;;;;;;;;5022974;28;20036;-83
2021/08/22 11:08:17;;;;;;;7.85;1.70;;;;;;;;;;5049399;28;20025;-83
2021/08/22 11:10:59;;;;;;;5.22;2.10;;;;;;;;;;5034537;28;20025;-83
2021/08/22 11:13:24;;;;;;;5.28;1.55;;;;;;;;;;5051754;28;20021;-83
2021/08/22 11:15:50;;;;;;;3.75;1.60;;;;;;;;;;5043835;28;20100;-83
2021/08/22 11:18:16;;;;;;;2.03;1.37;;;;;;;;;;5043468;28;20433;-83
2021/08/22 11:20:43;;;;;;;3.58;1.13;;;;;;;;;;5038169;28;20397;-83
2021/08/22 11:23:09;;;;;;;2.90;1.35;;;;;;;;;;5049078;28;20017;-83
2021/08/22 11:25:35;;;;;;;5.53;1.60;;;;;;;;;;5051741;28;20162;-83
2021/08/22 11:28:07;;;;;;;3.53;1.48;;;;;;;;;;5044089;28;20085;-83
2021/08/22 11:30:35;;;;;;;6.55;1.50;;;;;;;;;;5047841;28;20028;-83
2021/08/22 11:33:00;;;;;;;2.85;1.30;;;;;;;;;;5055036;28;20029;-83
2021/08/22 11:35:25;;;;;;;2.08;1.40;;;;;;;;;;5051035;28;20025;-83
2021/08/22 11:37:51;;;;;;;3.40;1.40;;;;;;;;;;5038771;28;20599;-83
2021/08/22 11:40:17;;;;;;;3.33;1.33;;;;;;;;;;5041883;28;20139;-83
2021/08/22 11:42:46;;;;;;;4.15;1.40;;;;;;;;;;5045889;28;20033;-83
2021/08/22 11:45:13;;;;;;;5.30;1.40;;;;;;;;;;5034714;28;20018;-83
2021/08/22 11:47:38;;;;;;;3.55;1.30;;;;;;;;;;5045763;28;20053;-83
2021/08/22 11:50:08;;;;;;;4.05;1.50;;;;;;;;;;5039083;28;20048;-82
2021/08/22 11:52:36;;;;;;;4.32;1.70;;;;;;;;;;5046027;28;20021;-82
2021/08/22 11:55:03;;;;;;;8.45;1.58;;;;;;;;;;5033660;28;20120;-83
2021/08/22 11:57:29;;;;;;;8.27;1.80;;;;;;;;;;5040208;28;20577;-83
2021/08/22 12:00:16;;;;;;;7.53;1.50;;;;;;;;;;5047648;28;20100;-83
2021/08/22 12:02:57;;;;;;;2.65;1.55;;;;;;;;;;5048069;28;20112;-84
2021/08/22 12:05:27;;;;;;;3.47;1.80;;;;;;;;;;5049149;28;20052;-83
2021/08/22 12:08:06;;;;;;;6.00;1.70;;;;;;;;;;5031825;28;20021;-83
2021/08/22 12:10:32;;;;;;;4.53;1.48;;;;;;;;;;5042184;28;20025;-83
2021/08/22 12:12:58;;;;;;;2.25;1.60;;;;;;;;;;5034665;28;20072;-83
2021/08/22 12:15:36;;;;;;;7.60;1.52;;;;;;;;;;5045135;28;20076;-83
2021/08/22 12:18:20;;;;;;;4.38;1.20;;;;;;;;;;5038077;28;20448;-83
2021/08/22 12:20:47;;;;;;;2.85;1.50;;;;;;;;;;5035891;28;20485;-83
2021/08/22 12:23:13;;;;;;;1.75;1.20;;;;;;;;;;5036652;28;20049;-84
2021/08/22 12:25:40;;;;;;;3.42;1.38;;;;;;;;;;5053797;28;20047;-83
2021/08/22 12:28:18;;;;;;;6.25;1.83;;;;;;;;;;5052960;28;20025;-83
2021/08/22 12:30:43;;;;;;;3.15;1.55;;;;;;;;;;5038269;28;20053;-83
2021/08/22 12:33:25;;;;;;;3.65;1.60;;;;;;;;;;5049428;28;20765;-84
2021/08/22 12:35:59;;;;;;;1.92;1.38;;;;;;;;;;5045128;28;20454;-83
2021/08/22 12:38:32;;;;;;;3.00;1.52;;;;;;;;;;5041889;28;20025;-83
2021/08/22 12:41:17;;;;;;;2.80;1.60;;;;;;;;;;5031725;28;20032;-83
2021/08/22 12:43:43;;;;;;;2.65;1.58;;;;;;;;;;5021679;28;20095;-84
2021/08/22 12:46:08;;;;;;;5.20;1.50;;;;;;;;;;5043507;28;20029;-83
2021/08/22 12:48:33;;;;;;;1.70;1.43;;;;;;;;;;5045647;28;20491;-83
2021/08/22 12:50:58;;;;;;;3.70;1.50;;;;;;;;;;5034172;28;20033;-84
2021/08/22 12:53:24;;;;;;;4.10;1.73;;;;;;;;;;5037718;28;20041;-83
2021/08/22 12:55:49;;;;;;;3.20;1.30;;;;;;;;;;5043651;28;20639;-84
2021/08/22 12:58:14;;;;;;;3.97;1.20;;;;;;;;;;5040781;28;20267;-83
2021/08/22 13:00:39;;;;;;;6.33;1.37;;;;;;;;;;5050037;28;20060;-84
2021/08/22 13:03:05;;;;;;;4.15;1.27;;;;;;;;;;5032666;28;20256;-83
2021/08/22 13:05:30;;;;;;;4.20;1.50;;;;;;;;;;5044821;28;20059;-83
2021/08/22 13:07:55;;;;;;;5.47;1.50;;;;;;;;;;5036595;28;20540;-84
2021/08/22 13:10:21;;;;;;;2.80;1.47;;;;;;;;;;5038918;28;20024;-84
2021/08/22 13:12:46;;;;;;;5.33;1.40;;;;;;;;;;5045483;28;20389;-84
2021/08/22 13:15:11;;;;;;;2.87;1.50;;;;;;;;;;5035448;28;20049;-84
2021/08/22 13:17:37;;;;;;;4.65;1.70;;;;;;;;;;5050853;28;20122;-83
2021/08/22 13:20:03;;;;;;;2.00;1.30;;;;;;;;;;5039959;28;20021;-84
2021/08/22 13:22:28;;;;;;;5.47;1.55;;;;;;;;;;5029920;28;20740;-84
2021/08/22 13:24:53;;;;;;;3.33;1.77;;;;;;;;;;5047982;28;20029;-84
2021/08/22 13:27:19;;;;;;;3.33;1.50;;;;;;;;;;5031401;28;20032;-84
2021/08/22 13:29:44;;;;;;;2.17;1.60;;;;;;;;;;5028506;28;20864;-83
2021/08/22 13:32:09;;;;;;;3.17;1.63;;;;;;;;;;5038960;28;20032;-83
2021/08/22 13:34:34;;;;;;;4.63;1.60;;;;;;;;;;5039163;28;20026;-83
2021/08/22 13:36:59;;;;;;;3.90;1.60;;;;;;;;;;5049528;28;20649;-83
2021/08/22 13:39:24;;;;;;;6.77;1.80;;;;;;;;;;5046251;28;20033;-83
2021/08/22 13:41:50;;;;;;;3.73;1.63;;;;;;;;;;5031033;28;20017;-83
2021/08/22 13:44:15;;;;;;;3.60;1.50;;;;;;;;;;5039979;28;20060;-83
2021/08/22 13:46:40;;;;;;;7.13;1.80;;;;;;;;;;5048791;28;20020;-83
2021/08/22 13:49:06;;;;;;;4.78;1.77;;;;;;;;;;5032009;28;20264;-83
2021/08/22 13:51:32;;;;;;;3.50;1.60;;;;;;;;;;5048824;28;20051;-83
2021/08/22 13:53:57;;;;;;;5.28;1.90;;;;;;;;;;5042702;28;20059;-84
2021/08/22 13:56:22;;;;;;;6.38;2.50;;;;;;;;;;5038028;28;20025;-83
2021/08/22 13:58:47;;;;;;;2.83;1.50;;;;;;;;;;5029406;28;20029;-84
2021/08/22 14:01:12;;;;;;;3.50;1.60;;;;;;;;;;5030862;28;20092;-84
2021/08/22 14:03:38;;;;;;;5.57;1.60;;;;;;;;;;5037226;28;20042;-84
2021/08/22 14:06:03;;;;;;;3.13;1.40;;;;;;;;;;5042735;28;20259;-82
2021/08/22 14:08:30;;;;;;;7.63;2.10;;;;;;;;;;5028918;28;20253;-83
2021/08/22 14:10:55;;;;;;;6.22;1.40;;;;;;;;;;5030194;28;20509;-84
2021/08/22 14:13:20;;;;;;;3.10;1.70;;;;;;;;;;5036146;28;20021;-83
2021/08/22 14:15:46;;;;;;;4.22;1.73;;;;;;;;;;5044511;28;20131;-84
2021/08/22 14:18:11;;;;;;;2.87;1.60;;;;;;;;;;5041057;28;20043;-84
2021/08/22 14:20:36;;;;;;;1.77;1.50;;;;;;;;;;5038749;28;20295;-84
2021/08/22 14:23:01;;;;;;;2.78;1.75;;;;;;;;;;5047599;28;20029;-84
2021/08/22 14:25:27;;;;;;;2.20;1.40;;;;;;;;;;5032777;28;20078;-84
2021/08/22 14:27:52;;;;;;;3.65;1.65;;;;;;;;;;5040471;28;20350;-84
2021/08/22 14:30:17;;;;;;;3.25;1.80;;;;;;;;;;5039681;28;20029;-84
2021/08/22 14:32:43;;;;;;;4.73;1.70;;;;;;;;;;5034622;28;20036;-84
2021/08/22 14:35:08;;;;;;;4.03;1.30;;;;;;;;;;5045149;28;20795;-84
2021/08/22 14:37:33;;;;;;;4.00;1.45;;;;;;;;;;5032514;28;20443;-84
2021/08/22 14:39:59;;;;;;;2.03;1.30;;;;;;;;;;5042278;28;20477;-84
2021/08/22 14:42:24;;;;;;;4.32;1.55;;;;;;;;;;5039866;28;20028;-84